メインページ
METAR-TAF:

METAR-TAF

空港 :

ジェネラル・エドワード・ローレンス・ローガン国際空港

ボストン, マサチューセッツ州, アメリカ合衆国

緯度: 42-21-38N, 経度: 071-00-38W, 海抜: 6m

現時点の気象観測

当レポートは1時間3分前の22:54(UTC)に作成
東/北東の風 6kt
気温 22°C
湿度 83%
気圧 1014 hPa
視程: 12.9km
高度200ftの雲はほとんどない
高度6500ftの雲はほとんどない
高度22000ftの千切れ雲あり

METAR: KBOS 162254Z 06006KT 8SM FEW002 FEW065 BKN220 22/19 A2993 RMK AO2 SLP135 T02220194

時間: 19:57 (23:57 UTC)

予報

当レポートは37分前の23:20(UTC)に作成
予報は17日の 00時(UTC)から 18日の 06時(UTC)まで有効
の風 6kt
視程: 9.7km
高度200ftの雲は散在している
17日の 0200時(UTC)から
南/南西の風 7kt
視程: 10km
高度200ftの雲はほとんどない
17日の 0700時(UTC)から
南/南西の風 6kt
視程: 6.4km
高度1000ftの千切れ雲あり
17日の 1200時(UTC)から
南/南西の風 7kt
視程: 10km
高度1000ftの雲は散在している
高度25000ftの千切れ雲あり
17日の 1700時(UTC)から
南/南西の風 12kt、最大23ktの突風を伴う
視程: 10km
高度4500ftの雲は散在している
近辺でにわか雨
17日の 2100時(UTC)から
南/南西の風 12kt、最大21ktの突風を伴う
視程: 6.4km
高度2500ftの千切れ雲あり
弱いにわか雨

TAF: KBOS 162320Z 1700/1806 08006KT 6SM BR SCT002 FM170200 20007KT P6SM FEW002 FM170700 20006KT 4SM BR BKN010 FM171200 21007KT P6SM SCT010 BKN250 FM171700 21012G23KT P6SM VCSH SCT045 FM172100 21012G21KT 4SM -SHRA BKN025

4,000以上の空港の気象観測と天気予報(METAR報とTAF報)

利用可能な観測所は地図上に黄色い丸と赤い丸で示す。

丸の上にカーソルを重ねると観測所名を参照できる。

次にクリックすると気象観測と天気予報を参照できる。

マップの切り替え:黒色「×」印の緑ボタンをクリックして拡大、「-」印の緑ボタンをクリックして縮小、緑色の三角印をクリックして隣りの地図に切り替え


METAR-TAF: